Lyme Center, New Hampshire
Current Conditions -  °F | °C
As of 6:53 AM on Sunday 25 Jan 2015 (Local Time) from KLEB Reporting Station
Overcast Overcast  
Wind Chill: 25°   Ceiling: 3800
Heat Index: 33°   Visibility: 10mi
Dew Point: 24°   Wind: 9mph
Humidity: 70%   Direction: 210°SSW
Pressure: 29.4"   Gusts: NA
Location:  43.8°N, 72.12°W
Report Text: KLEB 251153Z 21008KT 10SM FEW029 BKN038 OVC048 01/M04 A2940 RMK AO2 SLP964 70003 T00061044 10011 21011 53021
Loading
Personal Weather Stations






























Interactive Weather Map New forecast layout! Learn more

10-Day Weather Forecast

Advertisements
Track Severe Weather on mobile